sensor_id;sensor_type;location;lat;lon;timestamp;pressure;altitude;pressure_sealevel;temperature;humidity
33286;BME280;19656;50.096;20.014;2022-11-21T00:04:56;98311.34;;;2.24;68.12
33286;BME280;19656;50.096;20.014;2022-11-21T00:09:59;98301.40;;;2.14;68.18
33286;BME280;19656;50.096;20.014;2022-11-21T00:15:03;98294.13;;;2.08;68.49
33286;BME280;19656;50.096;20.014;2022-11-21T00:20:07;98290.90;;;2.10;68.73
33286;BME280;19656;50.096;20.014;2022-11-21T00:25:11;98292.92;;;2.08;68.60
33286;BME280;19656;50.096;20.014;2022-11-21T00:30:14;98289.90;;;2.00;68.48
33286;BME280;19656;50.096;20.014;2022-11-21T00:35:17;98286.31;;;1.93;68.54
33286;BME280;19656;50.096;20.014;2022-11-21T00:40:20;98286.69;;;1.89;68.59
33286;BME280;19656;50.096;20.014;2022-11-21T00:45:23;98288.45;;;1.83;68.52
33286;BME280;19656;50.096;20.014;2022-11-21T00:50:26;98287.44;;;1.78;68.49
33286;BME280;19656;50.096;20.014;2022-11-21T00:55:29;98285.95;;;1.76;68.83
33286;BME280;19656;50.096;20.014;2022-11-21T01:00:32;98273.84;;;1.81;68.69
33286;BME280;19656;50.096;20.014;2022-11-21T01:05:35;98268.02;;;1.92;68.43
33286;BME280;19656;50.096;20.014;2022-11-21T01:10:38;98271.80;;;1.93;68.37
33286;BME280;19656;50.096;20.014;2022-11-21T01:15:41;98268.14;;;1.93;68.48
33286;BME280;19656;50.096;20.014;2022-11-21T01:20:44;98263.48;;;1.91;68.38
33286;BME280;19656;50.096;20.014;2022-11-21T01:25:47;98256.02;;;1.85;68.36
33286;BME280;19656;50.096;20.014;2022-11-21T01:30:50;98253.94;;;1.80;68.38
33286;BME280;19656;50.096;20.014;2022-11-21T01:35:53;98247.89;;;1.75;68.28
33286;BME280;19656;50.096;20.014;2022-11-21T01:40:56;98247.84;;;1.71;68.74
33286;BME280;19656;50.096;20.014;2022-11-21T01:51:15;98253.10;;;1.62;68.26
33286;BME280;19656;50.096;20.014;2022-11-21T01:56:20;98258.77;;;1.55;68.47
33286;BME280;19656;50.096;20.014;2022-11-21T02:01:24;98268.67;;;1.57;69.05
33286;BME280;19656;50.096;20.014;2022-11-21T02:06:27;98272.14;;;1.62;68.93
33286;BME280;19656;50.096;20.014;2022-11-21T02:11:32;98274.39;;;1.72;68.82
33286;BME280;19656;50.096;20.014;2022-11-21T02:16:37;98264.70;;;1.78;68.91
33286;BME280;19656;50.096;20.014;2022-11-21T02:21:46;98260.39;;;1.85;68.88
33286;BME280;19656;50.096;20.014;2022-11-21T02:26:51;98257.82;;;1.88;68.83
33286;BME280;19656;50.096;20.014;2022-11-21T02:31:58;98258.38;;;1.88;68.80
33286;BME280;19656;50.096;20.014;2022-11-21T02:37:02;98258.12;;;1.85;68.85
33286;BME280;19656;50.096;20.014;2022-11-21T02:42:13;98258.36;;;1.84;68.58
33286;BME280;19656;50.096;20.014;2022-11-21T02:47:21;98251.93;;;1.83;68.33
33286;BME280;19656;50.096;20.014;2022-11-21T02:52:25;98245.41;;;1.75;68.20
33286;BME280;19656;50.096;20.014;2022-11-21T02:57:28;98243.56;;;1.69;67.91
33286;BME280;19656;50.096;20.014;2022-11-21T03:02:31;98234.84;;;1.64;68.03
33286;BME280;19656;50.096;20.014;2022-11-21T03:07:34;98237.67;;;1.58;67.90
33286;BME280;19656;50.096;20.014;2022-11-21T03:12:39;98244.27;;;1.46;67.67
33286;BME280;19656;50.096;20.014;2022-11-21T03:17:42;98236.50;;;1.38;67.60
33286;BME280;19656;50.096;20.014;2022-11-21T03:22:45;98231.80;;;1.29;67.60
33286;BME280;19656;50.096;20.014;2022-11-21T03:27:52;98231.10;;;1.24;67.55
33286;BME280;19656;50.096;20.014;2022-11-21T03:32:56;98225.20;;;1.28;67.62
33286;BME280;19656;50.096;20.014;2022-11-21T03:37:59;98222.72;;;1.29;67.30
33286;BME280;19656;50.096;20.014;2022-11-21T03:43:06;98218.58;;;1.28;67.41
33286;BME280;19656;50.096;20.014;2022-11-21T03:48:09;98216.82;;;1.23;67.35
33286;BME280;19656;50.096;20.014;2022-11-21T03:53:12;98215.31;;;1.17;67.52
33286;BME280;19656;50.096;20.014;2022-11-21T03:58:15;98209.58;;;1.11;67.53
33286;BME280;19656;50.096;20.014;2022-11-21T04:03:18;98208.73;;;1.06;67.64
33286;BME280;19656;50.096;20.014;2022-11-21T04:08:21;98215.80;;;0.99;67.57
33286;BME280;19656;50.096;20.014;2022-11-21T04:13:24;98222.88;;;0.97;67.59
33286;BME280;19656;50.096;20.014;2022-11-21T04:18:27;98232.31;;;0.91;67.49
33286;BME280;19656;50.096;20.014;2022-11-21T04:23:30;98228.20;;;0.84;67.69
33286;BME280;19656;50.096;20.014;2022-11-21T04:28:33;98220.88;;;0.79;68.51
33286;BME280;19656;50.096;20.014;2022-11-21T04:33:37;98221.96;;;0.83;68.61
33286;BME280;19656;50.096;20.014;2022-11-21T04:38:41;98218.76;;;0.85;68.03
33286;BME280;19656;50.096;20.014;2022-11-21T04:43:44;98206.92;;;0.89;67.60
33286;BME280;19656;50.096;20.014;2022-11-21T04:48:46;98203.57;;;0.90;67.27
33286;BME280;19656;50.096;20.014;2022-11-21T04:53:49;98203.45;;;0.93;67.32
33286;BME280;19656;50.096;20.014;2022-11-21T04:58:52;98196.50;;;0.97;67.55
33286;BME280;19656;50.096;20.014;2022-11-21T05:03:55;98197.29;;;0.85;66.26
33286;BME280;19656;50.096;20.014;2022-11-21T05:08:58;98201.65;;;0.75;66.40
33286;BME280;19656;50.096;20.014;2022-11-21T05:14:01;98187.79;;;0.67;67.00
33286;BME280;19656;50.096;20.014;2022-11-21T05:19:04;98180.34;;;0.66;66.36
33286;BME280;19656;50.096;20.014;2022-11-21T05:24:09;98178.07;;;0.57;66.36
33286;BME280;19656;50.096;20.014;2022-11-21T05:29:12;98174.54;;;0.48;66.29
33286;BME280;19656;50.096;20.014;2022-11-21T05:34:15;98174.09;;;0.36;66.47
33286;BME280;19656;50.096;20.014;2022-11-21T05:39:18;98177.92;;;0.31;66.61
33286;BME280;19656;50.096;20.014;2022-11-21T05:44:21;98167.59;;;0.27;66.75
33286;BME280;19656;50.096;20.014;2022-11-21T05:49:24;98153.91;;;0.24;66.79
33286;BME280;19656;50.096;20.014;2022-11-21T05:54:27;98152.24;;;0.21;67.00
33286;BME280;19656;50.096;20.014;2022-11-21T05:59:30;98149.16;;;0.30;67.80
33286;BME280;19656;50.096;20.014;2022-11-21T06:04:33;98142.91;;;0.34;67.09
33286;BME280;19656;50.096;20.014;2022-11-21T06:09:36;98130.84;;;0.40;66.74
33286;BME280;19656;50.096;20.014;2022-11-21T06:14:39;98125.98;;;0.44;66.63
33286;BME280;19656;50.096;20.014;2022-11-21T06:19:42;98125.23;;;0.46;66.74
33286;BME280;19656;50.096;20.014;2022-11-21T06:24:45;98130.90;;;0.43;66.95
33286;BME280;19656;50.096;20.014;2022-11-21T06:29:48;98130.36;;;0.39;67.24
33286;BME280;19656;50.096;20.014;2022-11-21T06:34:51;98137.08;;;0.41;67.98
33286;BME280;19656;50.096;20.014;2022-11-21T06:39:54;98141.81;;;0.50;68.54
33286;BME280;19656;50.096;20.014;2022-11-21T06:44:57;98142.79;;;0.52;67.58
33286;BME280;19656;50.096;20.014;2022-11-21T06:50:00;98140.34;;;0.47;67.29
33286;BME280;19656;50.096;20.014;2022-11-21T06:55:04;98135.73;;;0.54;68.28
33286;BME280;19656;50.096;20.014;2022-11-21T07:00:07;98133.64;;;0.63;67.91
33286;BME280;19656;50.096;20.014;2022-11-21T07:05:10;98128.00;;;0.60;67.74
33286;BME280;19656;50.096;20.014;2022-11-21T07:10:13;98125.66;;;0.58;67.96
33286;BME280;19656;50.096;20.014;2022-11-21T07:15:16;98122.44;;;0.55;68.22
33286;BME280;19656;50.096;20.014;2022-11-21T07:20:19;98119.51;;;0.59;68.19
33286;BME280;19656;50.096;20.014;2022-11-21T07:25:22;98113.31;;;0.66;68.36
33286;BME280;19656;50.096;20.014;2022-11-21T07:30:26;98105.02;;;0.78;68.50
33286;BME280;19656;50.096;20.014;2022-11-21T07:35:29;98102.67;;;0.89;68.48
33286;BME280;19656;50.096;20.014;2022-11-21T07:40:32;98103.58;;;0.97;68.42
33286;BME280;19656;50.096;20.014;2022-11-21T07:45:36;98100.98;;;1.06;68.56
33286;BME280;19656;50.096;20.014;2022-11-21T07:50:40;98109.05;;;1.13;68.78
33286;BME280;19656;50.096;20.014;2022-11-21T07:55:43;98101.07;;;1.21;68.97
33286;BME280;19656;50.096;20.014;2022-11-21T08:00:45;98094.88;;;1.32;69.19
33286;BME280;19656;50.096;20.014;2022-11-21T08:05:48;98085.75;;;1.46;69.30
33286;BME280;19656;50.096;20.014;2022-11-21T08:10:51;98079.30;;;1.62;69.33
33286;BME280;19656;50.096;20.014;2022-11-21T08:15:54;98074.04;;;1.79;69.71
33286;BME280;19656;50.096;20.014;2022-11-21T08:21:00;98070.12;;;1.98;69.63
33286;BME280;19656;50.096;20.014;2022-11-21T08:26:03;98067.64;;;2.15;69.77
33286;BME280;19656;50.096;20.014;2022-11-21T08:31:06;98063.21;;;2.35;69.37
33286;BME280;19656;50.096;20.014;2022-11-21T08:36:09;98063.29;;;2.61;69.29
33286;BME280;19656;50.096;20.014;2022-11-21T08:41:12;98061.46;;;2.86;69.24
33286;BME280;19656;50.096;20.014;2022-11-21T08:46:34;98062.29;;;3.05;68.88
33286;BME280;19656;50.096;20.014;2022-11-21T08:51:38;98058.92;;;3.21;68.99
33286;BME280;19656;50.096;20.014;2022-11-21T08:56:42;98052.46;;;3.31;68.64
33286;BME280;19656;50.096;20.014;2022-11-21T09:01:45;98049.27;;;3.35;68.70
33286;BME280;19656;50.096;20.014;2022-11-21T09:06:48;98057.44;;;3.41;68.51
33286;BME280;19656;50.096;20.014;2022-11-21T09:11:51;98054.21;;;3.49;68.45
33286;BME280;19656;50.096;20.014;2022-11-21T09:16:55;98055.59;;;3.64;68.88
33286;BME280;19656;50.096;20.014;2022-11-21T09:22:17;98058.79;;;3.77;68.35
33286;BME280;19656;50.096;20.014;2022-11-21T09:27:20;98048.97;;;3.90;68.50
33286;BME280;19656;50.096;20.014;2022-11-21T09:32:23;98045.64;;;4.11;68.78
33286;BME280;19656;50.096;20.014;2022-11-21T09:37:26;98050.73;;;4.31;68.09
33286;BME280;19656;50.096;20.014;2022-11-21T09:48:23;98041.22;;;4.55;67.30
33286;BME280;19656;50.096;20.014;2022-11-21T09:53:35;98036.59;;;4.56;67.01
33286;BME280;19656;50.096;20.014;2022-11-21T09:58:50;98039.09;;;4.55;66.86
33286;BME280;19656;50.096;20.014;2022-11-21T10:04:00;98036.48;;;4.51;66.91
33286;BME280;19656;50.096;20.014;2022-11-21T10:09:17;98029.10;;;4.48;67.05
33286;BME280;19656;50.096;20.014;2022-11-21T10:25:20;98017.31;;;4.42;67.38
33286;BME280;19656;50.096;20.014;2022-11-21T10:30:29;98017.15;;;4.42;67.67
33286;BME280;19656;50.096;20.014;2022-11-21T10:35:40;98024.98;;;4.50;67.58
33286;BME280;19656;50.096;20.014;2022-11-21T10:41:05;98019.89;;;4.46;67.38
33286;BME280;19656;50.096;20.014;2022-11-21T10:46:09;98016.63;;;4.38;67.15
33286;BME280;19656;50.096;20.014;2022-11-21T10:51:16;98008.21;;;4.35;67.28
33286;BME280;19656;50.096;20.014;2022-11-21T10:56:25;98001.41;;;4.34;67.73
33286;BME280;19656;50.096;20.014;2022-11-21T11:01:32;98005.35;;;4.46;67.66
33286;BME280;19656;50.096;20.014;2022-11-21T11:06:36;98002.10;;;4.67;66.96
33286;BME280;19656;50.096;20.014;2022-11-21T11:11:40;97996.27;;;4.89;66.82
33286;BME280;19656;50.096;20.014;2022-11-21T11:16:44;97991.02;;;4.98;66.60
33286;BME280;19656;50.096;20.014;2022-11-21T11:21:48;97983.19;;;5.01;66.17
33286;BME280;19656;50.096;20.014;2022-11-21T11:26:59;97974.98;;;4.99;66.34
33286;BME280;19656;50.096;20.014;2022-11-21T11:32:16;97972.86;;;5.00;66.36
33286;BME280;19656;50.096;20.014;2022-11-21T11:37:42;97977.40;;;5.00;66.47
33286;BME280;19656;50.096;20.014;2022-11-21T11:48:33;97967.29;;;5.02;66.45
33286;BME280;19656;50.096;20.014;2022-11-21T11:54:07;97955.63;;;4.96;66.64
33286;BME280;19656;50.096;20.014;2022-11-21T11:59:20;97948.23;;;4.96;66.81
33286;BME280;19656;50.096;20.014;2022-11-21T12:04:28;97949.98;;;5.00;66.70
33286;BME280;19656;50.096;20.014;2022-11-21T12:09:53;97947.79;;;5.08;67.08
33286;BME280;19656;50.096;20.014;2022-11-21T12:20:29;97944.97;;;5.20;66.91
33286;BME280;19656;50.096;20.014;2022-11-21T12:25:37;97949.35;;;5.26;66.87
33286;BME280;19656;50.096;20.014;2022-11-21T12:30:54;97949.21;;;5.38;66.78
33286;BME280;19656;50.096;20.014;2022-11-21T12:41:50;97939.90;;;5.46;66.68
33286;BME280;19656;50.096;20.014;2022-11-21T12:47:51;97942.45;;;5.48;66.71
33286;BME280;19656;50.096;20.014;2022-11-21T12:53:32;97940.70;;;5.51;66.72
33286;BME280;19656;50.096;20.014;2022-11-21T12:59:01;97936.33;;;5.50;66.93
33286;BME280;19656;50.096;20.014;2022-11-21T13:04:14;97937.48;;;5.52;66.98
33286;BME280;19656;50.096;20.014;2022-11-21T13:09:20;97938.13;;;5.53;67.06
33286;BME280;19656;50.096;20.014;2022-11-21T13:20:14;97935.71;;;5.49;67.01
33286;BME280;19656;50.096;20.014;2022-11-21T13:30:34;97930.85;;;5.42;67.45
33286;BME280;19656;50.096;20.014;2022-11-21T13:40:53;97932.14;;;5.47;67.53
33286;BME280;19656;50.096;20.014;2022-11-21T13:46:56;97931.11;;;5.55;67.36
33286;BME280;19656;50.096;20.014;2022-11-21T13:52:01;97926.65;;;5.65;68.02
33286;BME280;19656;50.096;20.014;2022-11-21T14:02:47;97911.73;;;5.90;66.60
33286;BME280;19656;50.096;20.014;2022-11-21T14:13:30;97899.84;;;5.75;66.79
33286;BME280;19656;50.096;20.014;2022-11-21T14:18:34;97907.23;;;5.69;67.12
33286;BME280;19656;50.096;20.014;2022-11-21T14:23:42;97902.23;;;5.61;66.74
33286;BME280;19656;50.096;20.014;2022-11-21T14:28:46;97903.88;;;5.55;66.80
33286;BME280;19656;50.096;20.014;2022-11-21T14:33:55;97904.10;;;5.45;67.10
33286;BME280;19656;50.096;20.014;2022-11-21T14:39:00;97911.98;;;5.34;66.87
33286;BME280;19656;50.096;20.014;2022-11-21T14:44:27;97913.91;;;5.22;67.43
33286;BME280;19656;50.096;20.014;2022-11-21T14:49:31;97921.92;;;5.14;67.59
33286;BME280;19656;50.096;20.014;2022-11-21T14:54:44;97919.45;;;5.11;67.97
33286;BME280;19656;50.096;20.014;2022-11-21T15:00:13;97922.04;;;5.15;68.02
33286;BME280;19656;50.096;20.014;2022-11-21T15:05:37;97918.63;;;5.19;67.96
33286;BME280;19656;50.096;20.014;2022-11-21T15:11:01;97924.39;;;5.26;68.05
33286;BME280;19656;50.096;20.014;2022-11-21T15:16:05;97920.79;;;5.28;67.98
33286;BME280;19656;50.096;20.014;2022-11-21T15:21:12;97919.12;;;5.26;67.97
33286;BME280;19656;50.096;20.014;2022-11-21T15:26:31;97917.93;;;5.22;68.16
33286;BME280;19656;50.096;20.014;2022-11-21T15:31:34;97924.17;;;5.15;68.07
33286;BME280;19656;50.096;20.014;2022-11-21T15:36:37;97930.13;;;5.09;67.73
33286;BME280;19656;50.096;20.014;2022-11-21T15:41:40;97928.20;;;5.00;67.93
33286;BME280;19656;50.096;20.014;2022-11-21T15:46:43;97922.63;;;4.92;68.27
33286;BME280;19656;50.096;20.014;2022-11-21T15:51:49;97924.42;;;4.89;68.41
33286;BME280;19656;50.096;20.014;2022-11-21T15:57:12;97917.88;;;4.84;68.56
33286;BME280;19656;50.096;20.014;2022-11-21T16:02:19;97910.56;;;4.82;68.95
33286;BME280;19656;50.096;20.014;2022-11-21T16:07:22;97911.14;;;4.85;68.78
33286;BME280;19656;50.096;20.014;2022-11-21T16:12:25;97915.14;;;4.91;68.83
33286;BME280;19656;50.096;20.014;2022-11-21T16:17:27;97916.15;;;4.98;69.22
33286;BME280;19656;50.096;20.014;2022-11-21T16:22:31;97916.94;;;5.03;69.02
33286;BME280;19656;50.096;20.014;2022-11-21T16:27:34;97920.23;;;5.07;68.94
33286;BME280;19656;50.096;20.014;2022-11-21T16:32:37;97920.77;;;5.13;68.83
33286;BME280;19656;50.096;20.014;2022-11-21T16:37:40;97926.37;;;5.13;68.70
33286;BME280;19656;50.096;20.014;2022-11-21T16:42:43;97932.41;;;5.12;68.85
33286;BME280;19656;50.096;20.014;2022-11-21T16:47:46;97937.97;;;5.13;68.68
33286;BME280;19656;50.096;20.014;2022-11-21T16:52:52;97938.36;;;5.12;69.13
33286;BME280;19656;50.096;20.014;2022-11-21T16:57:56;97936.39;;;5.10;69.12
33286;BME280;19656;50.096;20.014;2022-11-21T17:03:02;97941.38;;;5.09;69.07
33286;BME280;19656;50.096;20.014;2022-11-21T17:08:05;97945.05;;;5.12;68.89
33286;BME280;19656;50.096;20.014;2022-11-21T17:13:08;97946.33;;;5.21;69.27
33286;BME280;19656;50.096;20.014;2022-11-21T17:18:11;97945.52;;;5.35;69.09
33286;BME280;19656;50.096;20.014;2022-11-21T17:23:14;97946.03;;;5.38;68.70
33286;BME280;19656;50.096;20.014;2022-11-21T17:28:17;97950.77;;;5.38;68.32
33286;BME280;19656;50.096;20.014;2022-11-21T17:33:20;97944.39;;;5.39;68.26
33286;BME280;19656;50.096;20.014;2022-11-21T17:38:23;97948.47;;;5.35;68.22
33286;BME280;19656;50.096;20.014;2022-11-21T17:43:27;97949.52;;;5.33;68.04
33286;BME280;19656;50.096;20.014;2022-11-21T17:48:32;97952.80;;;5.30;68.27
33286;BME280;19656;50.096;20.014;2022-11-21T17:53:38;97961.77;;;5.28;68.39
33286;BME280;19656;50.096;20.014;2022-11-21T17:58:41;97959.67;;;5.24;68.35
33286;BME280;19656;50.096;20.014;2022-11-21T18:03:55;97955.08;;;5.21;68.46
33286;BME280;19656;50.096;20.014;2022-11-21T18:08:59;97951.54;;;5.19;68.41
33286;BME280;19656;50.096;20.014;2022-11-21T18:14:03;97945.59;;;5.18;68.72
33286;BME280;19656;50.096;20.014;2022-11-21T18:19:10;97941.70;;;5.28;68.77
33286;BME280;19656;50.096;20.014;2022-11-21T18:24:14;97944.82;;;5.37;68.74
33286;BME280;19656;50.096;20.014;2022-11-21T18:29:17;97944.57;;;5.42;68.51
33286;BME280;19656;50.096;20.014;2022-11-21T18:34:40;97944.67;;;5.43;68.33
33286;BME280;19656;50.096;20.014;2022-11-21T18:39:43;97945.04;;;5.40;68.16
33286;BME280;19656;50.096;20.014;2022-11-21T18:44:46;97939.60;;;5.39;68.48
33286;BME280;19656;50.096;20.014;2022-11-21T18:49:49;97939.45;;;5.36;68.50
33286;BME280;19656;50.096;20.014;2022-11-21T18:54:52;97949.77;;;5.35;68.65
33286;BME280;19656;50.096;20.014;2022-11-21T18:59:55;97949.35;;;5.32;68.60
33286;BME280;19656;50.096;20.014;2022-11-21T19:04:58;97956.58;;;5.32;69.02
33286;BME280;19656;50.096;20.014;2022-11-21T19:10:02;97959.13;;;5.30;68.96
33286;BME280;19656;50.096;20.014;2022-11-21T19:15:25;97964.45;;;5.36;69.25
33286;BME280;19656;50.096;20.014;2022-11-21T19:20:27;97962.45;;;5.52;69.18
33286;BME280;19656;50.096;20.014;2022-11-21T19:25:31;97970.73;;;5.58;68.91
33286;BME280;19656;50.096;20.014;2022-11-21T19:30:34;97974.13;;;5.60;68.44
33286;BME280;19656;50.096;20.014;2022-11-21T19:35:39;97977.11;;;5.62;68.72
33286;BME280;19656;50.096;20.014;2022-11-21T19:40:42;97978.77;;;5.70;68.51
33286;BME280;19656;50.096;20.014;2022-11-21T19:46:03;97971.09;;;5.63;68.30
33286;BME280;19656;50.096;20.014;2022-11-21T19:51:07;97975.85;;;5.57;68.23
33286;BME280;19656;50.096;20.014;2022-11-21T19:56:12;97985.77;;;5.53;68.28
33286;BME280;19656;50.096;20.014;2022-11-21T20:01:19;97992.76;;;5.48;68.44
33286;BME280;19656;50.096;20.014;2022-11-21T20:06:31;97995.95;;;5.44;68.74
33286;BME280;19656;50.096;20.014;2022-11-21T20:11:35;98001.89;;;5.45;68.99
33286;BME280;19656;50.096;20.014;2022-11-21T20:16:45;98001.34;;;5.52;69.06
33286;BME280;19656;50.096;20.014;2022-11-21T20:21:48;97998.00;;;5.61;69.06
33286;BME280;19656;50.096;20.014;2022-11-21T20:26:51;98002.84;;;5.62;68.86
33286;BME280;19656;50.096;20.014;2022-11-21T20:31:55;98003.01;;;5.68;68.59
33286;BME280;19656;50.096;20.014;2022-11-21T20:37:00;98000.83;;;5.73;68.92
33286;BME280;19656;50.096;20.014;2022-11-21T20:42:04;97996.84;;;5.75;68.48
33286;BME280;19656;50.096;20.014;2022-11-21T20:47:08;97997.74;;;5.68;68.44
33286;BME280;19656;50.096;20.014;2022-11-21T20:52:11;98007.93;;;5.59;68.54
33286;BME280;19656;50.096;20.014;2022-11-21T20:57:34;98011.12;;;5.50;68.57
33286;BME280;19656;50.096;20.014;2022-11-21T21:02:37;98010.74;;;5.44;68.89
33286;BME280;19656;50.096;20.014;2022-11-21T21:07:40;98014.33;;;5.43;69.18
33286;BME280;19656;50.096;20.014;2022-11-21T21:12:43;98010.73;;;5.44;69.56
33286;BME280;19656;50.096;20.014;2022-11-21T21:17:50;98003.59;;;5.46;69.63
33286;BME280;19656;50.096;20.014;2022-11-21T21:22:53;98005.23;;;5.54;69.96
33286;BME280;19656;50.096;20.014;2022-11-21T21:27:57;98005.92;;;5.57;69.56
33286;BME280;19656;50.096;20.014;2022-11-21T21:33:00;98000.83;;;5.66;69.61
33286;BME280;19656;50.096;20.014;2022-11-21T21:38:03;98007.84;;;5.66;69.62
33286;BME280;19656;50.096;20.014;2022-11-21T21:43:10;98009.67;;;5.68;69.60
33286;BME280;19656;50.096;20.014;2022-11-21T21:48:14;98013.10;;;5.73;69.88
33286;BME280;19656;50.096;20.014;2022-11-21T21:53:17;98017.42;;;5.71;69.36
33286;BME280;19656;50.096;20.014;2022-11-21T21:58:19;98019.50;;;5.66;69.53
33286;BME280;19656;50.096;20.014;2022-11-21T22:03:22;98016.17;;;5.60;69.49
33286;BME280;19656;50.096;20.014;2022-11-21T22:08:26;98016.15;;;5.54;69.59
33286;BME280;19656;50.096;20.014;2022-11-21T22:13:28;98019.54;;;5.51;69.68
33286;BME280;19656;50.096;20.014;2022-11-21T22:18:31;98021.66;;;5.47;69.78
33286;BME280;19656;50.096;20.014;2022-11-21T22:23:34;98012.61;;;5.45;69.94
33286;BME280;19656;50.096;20.014;2022-11-21T22:28:38;98009.30;;;5.51;69.68
33286;BME280;19656;50.096;20.014;2022-11-21T22:33:42;98013.04;;;5.53;69.82
33286;BME280;19656;50.096;20.014;2022-11-21T22:38:46;98016.03;;;5.56;69.39
33286;BME280;19656;50.096;20.014;2022-11-21T22:43:54;98017.77;;;5.57;69.65
33286;BME280;19656;50.096;20.014;2022-11-21T22:48:58;98017.50;;;5.52;69.66
33286;BME280;19656;50.096;20.014;2022-11-21T22:54:01;98019.04;;;5.44;69.41
33286;BME280;19656;50.096;20.014;2022-11-21T22:59:04;98015.02;;;5.37;69.39
33286;BME280;19656;50.096;20.014;2022-11-21T23:04:07;98014.81;;;5.25;69.18
33286;BME280;19656;50.096;20.014;2022-11-21T23:09:18;98012.18;;;5.10;68.97
33286;BME280;19656;50.096;20.014;2022-11-21T23:14:21;98000.08;;;4.93;68.99
33286;BME280;19656;50.096;20.014;2022-11-21T23:19:23;97996.89;;;4.84;68.98
33286;BME280;19656;50.096;20.014;2022-11-21T23:24:26;97995.18;;;4.74;68.84
33286;BME280;19656;50.096;20.014;2022-11-21T23:29:29;97993.98;;;4.67;68.81
33286;BME280;19656;50.096;20.014;2022-11-21T23:34:33;97997.50;;;4.67;68.26
33286;BME280;19656;50.096;20.014;2022-11-21T23:39:36;97982.14;;;4.62;68.29
33286;BME280;19656;50.096;20.014;2022-11-21T23:44:39;97969.66;;;4.56;68.50
33286;BME280;19656;50.096;20.014;2022-11-21T23:49:42;97966.46;;;4.47;68.15
33286;BME280;19656;50.096;20.014;2022-11-21T23:54:51;97968.19;;;4.38;68.24
33286;BME280;19656;50.096;20.014;2022-11-21T23:59:54;97962.61;;;4.27;68.10
